Flight Track Log - Related Links

Times and Time Zones

All times are in EDT time to prevent confusion due to time zone crossing. See the EJA829P flight status page for this flight to view local times or setup timezone preferences in your user account.

Time Position Orientation Groundspeed Altitude Reporting Facility
EDT Latitude Longitude Course Direction KTS MPH feet Rate Location/Type
Thu 05:31:30 PM 40.7500 -73.4333 14° North 184 212 1,600  Level New York TRACON
Thu 05:32:30 PM 40.8000 -73.4167 14° North 203 234 2,100 1,692 Climbing New York TRACON
Thu 05:34:06 PM 40.8817 -73.3597 28° Northeast 231 266 6,000 2,808 Climbing Boston Center
Thu 05:35:06 PM 40.9406 -73.2947 40° Northeast 251 289 9,400 2,500 Climbing Boston Center
Thu 05:36:06 PM 40.9969 -73.2431 35° Northeast 275 316 11,000 1,750 Climbing Boston Center
Thu 05:37:06 PM 41.0894 -73.1561 35° Northeast 319 367 12,900 950 Climbing Boston Center
Thu 05:38:06 PM 41.1711 -73.0825 34° Northeast 344 396 12,900  Level Boston Center
Thu 05:39:06 PM 41.2214 -73.0058 49° Northeast 349 402 12,900  Level Boston Center
Thu 05:40:06 PM 41.2389 -72.8486 82° East 327 376 12,900  Level Boston Center
Thu 05:41:06 PM 41.2539 -72.7189 81° East 338 389 12,900  Level Boston Center
Thu 05:42:06 PM 41.2686 -72.5864 82° East 354 407 12,900 50 Level Boston Center
Thu 05:43:06 PM 41.2833 -72.4456 82° East 354 407 13,000 50 Climbing Boston Center
Thu 05:44:06 PM 41.3000 -72.3131 80° East 354 407 13,000  Level Boston Center
Thu 05:45:06 PM 41.3144 -72.1914 81° East 362 417 13,000  Level Boston Center
Thu 05:46:06 PM 41.3328 -72.0475 80° East 362 417 13,000  Level Boston Center
Thu 05:47:06 PM 41.3364 -71.9314 88° East 362 417 13,000  Level Boston Center
Thu 05:48:06 PM 41.3439 -71.7847 86° East 355 409 13,000  Level Boston Center
Thu 05:49:06 PM 41.3494 -71.6686 86° East 355 409 13,000  Level Boston Center
Thu 05:50:06 PM 41.3567 -71.5219 86° East 355 409 13,000  Level Boston Center
Thu 05:51:06 PM 41.3453 -71.3922 97° East 350 403 13,000  Level Boston Center
Thu 05:52:06 PM 41.3003 -71.2797 118° Southeast 345 397 13,000 -50 Level Boston Center
Thu 05:53:06 PM 41.2511 -71.1617 119° Southeast 355 409 12,900 -550 Descending Boston Center
Thu 05:54:06 PM 41.2017 -71.0469 120° Southeast 355 409 11,900 -1,050 Descending Boston Center
Thu 05:55:06 PM 41.1567 -70.9347 118° Southeast 355 409 10,800 -1,050 Descending Boston Center
Thu 05:56:06 PM 41.1219 -70.8364 115° Southeast 340 391 9,800 -1,000 Descending Boston Center
Thu 05:57:06 PM 41.1142 -70.7292 95° East 294 338 8,800 -950 Descending Boston Center
Thu 05:58:06 PM 41.1061 -70.6219 96° East 289 333 7,900 -1,000 Descending Boston Center
Thu 05:59:06 PM 41.0981 -70.5203 96° East 289 333 6,800 -1,050 Descending Boston Center
Thu 06:00:06 PM 41.0922 -70.4131 94° East 289 333 5,800 -950 Descending Boston Center
Thu 06:01:06 PM 41.0861 -70.3086 94° East 289 333 4,900 -550 Descending Boston Center
Thu 06:02:06 PM 41.0903 -70.2036 87° East 289 333 4,700 -650 Descending Boston Center
Thu 06:03:06 PM 41.1111 -70.1067 74° East 289 333 3,600 -900 Descending Boston Center
Thu 06:04:06 PM 41.1342 -70.0067 73° East 278 320 2,900 -300 Descending Boston Center
Thu 06:05:06 PM 41.1892 -69.9467 39° Northeast 256 295 3,000 45 Climbing Boston Center
Thu 06:06:18 PM 41.2486 -69.9083 26° Northeast 218 251 3,000  Level Boston Center
Thu 06:07:18 PM 41.2958 -69.8706 31° Northeast 207 238 3,000  Level Boston Center
Thu 06:08:18 PM 41.3389 -69.8411 27° Northeast 194 223 3,000  Level Boston Center
Thu 06:09:18 PM 41.3819 -69.8172 23° Northeast 182 209 3,000 -400 Level Boston Center
Thu 06:10:18 PM 41.4142 -69.8575 317° Northwest 140 161 2,200 -500 Descending Boston Center
Thu 06:11:18 PM 41.3858 -69.8947 225° Southwest 79 91 2,000 -100 Descending Boston Center
Thu 06:12:18 PM 41.3617 -69.9258 224° Southwest 102 117 2,000  Level Boston Center
Thu 06:13:30 PM 41.3372 -69.9575 224° Southwest 116 133 2,000 -227 Level Boston Center
Thu 06:14:30 PM 41.3108 -69.9889 222° Southwest 121 139 1,500 -500 Descending Boston Center
Thu 06:15:30 PM 41.2928 -70.0172 230° Southwest 115 132 1,000 -500 Descending Boston Center
Thu 06:16:30 PM 41.2725 -70.0400 220° Southwest 110 127 500 -250 Descending Boston Center
Thu 06:17:30 PM 41.2542 -70.0683 229° Southwest 110 127 500 5,250 Level Boston Center
Thu 06:18:30 PM 41.2339 -70.0967 226° Southwest 110 127 11,000 10,500 Climbing Boston Center

Login

Don't have an account? Register now (free) for customized features, flight alerts, and more!